sensor_id;sensor_type;location;lat;lon;timestamp;P1;durP1;ratioP1;P2;durP2;ratioP2
9783;SDS011;4931;44.874;-1.092;2022-09-09T00:02:49;10.38;;;1.55;;
9783;SDS011;4931;44.874;-1.092;2022-09-09T00:07:41;11.85;;;1.95;;
9783;SDS011;4931;44.874;-1.092;2022-09-09T00:17:25;8.57;;;1.83;;
9783;SDS011;4931;44.874;-1.092;2022-09-09T00:22:22;15.57;;;2.20;;
9783;SDS011;4931;44.874;-1.092;2022-09-09T00:27:09;11.20;;;1.95;;
9783;SDS011;4931;44.874;-1.092;2022-09-09T00:32:07;16.30;;;2.38;;
9783;SDS011;4931;44.874;-1.092;2022-09-09T00:37:00;15.93;;;2.10;;
9783;SDS011;4931;44.874;-1.092;2022-09-09T00:41:50;15.90;;;2.35;;
9783;SDS011;4931;44.874;-1.092;2022-09-09T00:46:53;12.48;;;1.83;;
9783;SDS011;4931;44.874;-1.092;2022-09-09T00:51:46;11.60;;;1.98;;
9783;SDS011;4931;44.874;-1.092;2022-09-09T00:56:41;10.43;;;1.60;;
9783;SDS011;4931;44.874;-1.092;2022-09-09T01:01:32;18.30;;;3.47;;
9783;SDS011;4931;44.874;-1.092;2022-09-09T01:06:19;13.82;;;2.03;;
9783;SDS011;4931;44.874;-1.092;2022-09-09T01:11:14;9.88;;;1.63;;
9783;SDS011;4931;44.874;-1.092;2022-09-09T01:16:09;17.92;;;2.60;;
9783;SDS011;4931;44.874;-1.092;2022-09-09T01:20:59;19.38;;;2.10;;
9783;SDS011;4931;44.874;-1.092;2022-09-09T01:26:08;16.77;;;2.90;;
9783;SDS011;4931;44.874;-1.092;2022-09-09T01:30:58;14.45;;;1.90;;
9783;SDS011;4931;44.874;-1.092;2022-09-09T01:35:46;13.88;;;2.10;;
9783;SDS011;4931;44.874;-1.092;2022-09-09T01:40:36;9.68;;;1.73;;
9783;SDS011;4931;44.874;-1.092;2022-09-09T01:45:24;13.38;;;2.40;;
9783;SDS011;4931;44.874;-1.092;2022-09-09T01:50:10;12.77;;;2.38;;
9783;SDS011;4931;44.874;-1.092;2022-09-09T01:54:59;13.13;;;2.15;;
9783;SDS011;4931;44.874;-1.092;2022-09-09T01:59:47;12.40;;;1.90;;
9783;SDS011;4931;44.874;-1.092;2022-09-09T02:04:50;16.30;;;1.88;;
9783;SDS011;4931;44.874;-1.092;2022-09-09T02:14:27;11.25;;;2.20;;
9783;SDS011;4931;44.874;-1.092;2022-09-09T02:19:19;16.45;;;2.45;;
9783;SDS011;4931;44.874;-1.092;2022-09-09T02:24:14;15.98;;;2.33;;
9783;SDS011;4931;44.874;-1.092;2022-09-09T02:29:01;11.33;;;2.23;;
9783;SDS011;4931;44.874;-1.092;2022-09-09T02:33:51;8.75;;;2.63;;
9783;SDS011;4931;44.874;-1.092;2022-09-09T02:38:40;14.73;;;1.70;;
9783;SDS011;4931;44.874;-1.092;2022-09-09T02:43:35;11.23;;;1.80;;
9783;SDS011;4931;44.874;-1.092;2022-09-09T02:48:21;11.13;;;1.98;;
9783;SDS011;4931;44.874;-1.092;2022-09-09T02:53:16;15.23;;;1.73;;
9783;SDS011;4931;44.874;-1.092;2022-09-09T02:58:02;14.63;;;1.92;;
9783;SDS011;4931;44.874;-1.092;2022-09-09T03:02:54;18.45;;;2.55;;
9783;SDS011;4931;44.874;-1.092;2022-09-09T03:07:39;12.18;;;1.67;;
9783;SDS011;4931;44.874;-1.092;2022-09-09T03:12:25;15.52;;;1.85;;
9783;SDS011;4931;44.874;-1.092;2022-09-09T03:17:10;14.27;;;1.85;;
9783;SDS011;4931;44.874;-1.092;2022-09-09T03:21:58;10.65;;;2.03;;
9783;SDS011;4931;44.874;-1.092;2022-09-09T03:26:43;9.27;;;1.63;;
9783;SDS011;4931;44.874;-1.092;2022-09-09T03:31:29;10.50;;;1.58;;
9783;SDS011;4931;44.874;-1.092;2022-09-09T03:36:14;12.63;;;2.00;;
9783;SDS011;4931;44.874;-1.092;2022-09-09T03:41:02;11.55;;;1.63;;
9783;SDS011;4931;44.874;-1.092;2022-09-09T03:45:49;11.18;;;1.75;;
9783;SDS011;4931;44.874;-1.092;2022-09-09T03:50:39;13.13;;;1.73;;
9783;SDS011;4931;44.874;-1.092;2022-09-09T03:55:28;17.90;;;2.15;;
9783;SDS011;4931;44.874;-1.092;2022-09-09T04:00:16;12.45;;;2.58;;
9783;SDS011;4931;44.874;-1.092;2022-09-09T04:05:01;10.70;;;1.77;;
9783;SDS011;4931;44.874;-1.092;2022-09-09T04:09:49;15.90;;;1.90;;
9783;SDS011;4931;44.874;-1.092;2022-09-09T04:14:36;12.27;;;1.80;;
9783;SDS011;4931;44.874;-1.092;2022-09-09T04:19:24;14.00;;;2.28;;
9783;SDS011;4931;44.874;-1.092;2022-09-09T04:24:09;6.97;;;1.38;;
9783;SDS011;4931;44.874;-1.092;2022-09-09T04:28:55;7.57;;;1.48;;
9783;SDS011;4931;44.874;-1.092;2022-09-09T04:33:40;12.20;;;1.85;;
9783;SDS011;4931;44.874;-1.092;2022-09-09T04:38:28;16.05;;;1.52;;
9783;SDS011;4931;44.874;-1.092;2022-09-09T04:43:13;10.18;;;1.73;;
9783;SDS011;4931;44.874;-1.092;2022-09-09T04:48:00;8.57;;;1.45;;
9783;SDS011;4931;44.874;-1.092;2022-09-09T04:52:45;9.93;;;1.90;;
9783;SDS011;4931;44.874;-1.092;2022-09-09T04:57:34;18.05;;;1.85;;
9783;SDS011;4931;44.874;-1.092;2022-09-09T05:02:19;11.20;;;1.75;;
9783;SDS011;4931;44.874;-1.092;2022-09-09T05:07:04;11.35;;;1.80;;
9783;SDS011;4931;44.874;-1.092;2022-09-09T05:11:49;11.75;;;1.77;;
9783;SDS011;4931;44.874;-1.092;2022-09-09T05:16:37;11.68;;;1.73;;
9783;SDS011;4931;44.874;-1.092;2022-09-09T05:21:23;15.10;;;2.15;;
9783;SDS011;4931;44.874;-1.092;2022-09-09T05:26:12;14.75;;;2.22;;
9783;SDS011;4931;44.874;-1.092;2022-09-09T05:30:58;15.98;;;2.63;;
9783;SDS011;4931;44.874;-1.092;2022-09-09T05:35:49;12.80;;;2.55;;
9783;SDS011;4931;44.874;-1.092;2022-09-09T05:40:46;13.77;;;2.60;;
9783;SDS011;4931;44.874;-1.092;2022-09-09T05:45:32;15.70;;;2.20;;
9783;SDS011;4931;44.874;-1.092;2022-09-09T05:50:17;11.05;;;1.92;;
9783;SDS011;4931;44.874;-1.092;2022-09-09T05:55:06;10.63;;;1.80;;
9783;SDS011;4931;44.874;-1.092;2022-09-09T05:59:52;11.07;;;2.30;;
9783;SDS011;4931;44.874;-1.092;2022-09-09T06:04:38;12.50;;;2.60;;
9783;SDS011;4931;44.874;-1.092;2022-09-09T06:09:23;13.40;;;2.60;;
9783;SDS011;4931;44.874;-1.092;2022-09-09T06:14:11;9.10;;;2.20;;
9783;SDS011;4931;44.874;-1.092;2022-09-09T06:18:56;12.15;;;2.92;;
9783;SDS011;4931;44.874;-1.092;2022-09-09T06:23:42;11.57;;;2.13;;
9783;SDS011;4931;44.874;-1.092;2022-09-09T06:28:28;10.68;;;1.88;;
9783;SDS011;4931;44.874;-1.092;2022-09-09T06:33:16;13.35;;;1.83;;
9783;SDS011;4931;44.874;-1.092;2022-09-09T06:38:01;17.52;;;1.90;;
9783;SDS011;4931;44.874;-1.092;2022-09-09T06:42:47;13.50;;;2.17;;
9783;SDS011;4931;44.874;-1.092;2022-09-09T06:47:32;13.55;;;2.00;;
9783;SDS011;4931;44.874;-1.092;2022-09-09T06:52:21;14.15;;;1.65;;
9783;SDS011;4931;44.874;-1.092;2022-09-09T06:57:06;19.15;;;2.38;;
9783;SDS011;4931;44.874;-1.092;2022-09-09T07:02:12;15.98;;;2.20;;
9783;SDS011;4931;44.874;-1.092;2022-09-09T07:06:57;15.82;;;2.10;;
9783;SDS011;4931;44.874;-1.092;2022-09-09T07:11:48;11.85;;;1.60;;
9783;SDS011;4931;44.874;-1.092;2022-09-09T07:16:35;15.32;;;1.90;;
9783;SDS011;4931;44.874;-1.092;2022-09-09T07:21:21;12.52;;;1.45;;
9783;SDS011;4931;44.874;-1.092;2022-09-09T07:26:08;13.10;;;1.75;;
9783;SDS011;4931;44.874;-1.092;2022-09-09T07:30:58;16.73;;;1.83;;
9783;SDS011;4931;44.874;-1.092;2022-09-09T07:35:46;8.07;;;1.30;;
9783;SDS011;4931;44.874;-1.092;2022-09-09T07:40:32;9.90;;;1.38;;
9783;SDS011;4931;44.874;-1.092;2022-09-09T07:45:18;10.80;;;1.27;;
9783;SDS011;4931;44.874;-1.092;2022-09-09T07:50:06;7.65;;;1.58;;
9783;SDS011;4931;44.874;-1.092;2022-09-09T07:54:52;11.50;;;1.55;;
9783;SDS011;4931;44.874;-1.092;2022-09-09T07:59:38;11.55;;;1.52;;
9783;SDS011;4931;44.874;-1.092;2022-09-09T08:04:23;10.98;;;1.45;;
9783;SDS011;4931;44.874;-1.092;2022-09-09T08:09:12;7.72;;;1.48;;
9783;SDS011;4931;44.874;-1.092;2022-09-09T08:13:58;11.77;;;1.27;;
9783;SDS011;4931;44.874;-1.092;2022-09-09T08:18:44;14.07;;;1.55;;
9783;SDS011;4931;44.874;-1.092;2022-09-09T08:23:29;13.20;;;1.50;;
9783;SDS011;4931;44.874;-1.092;2022-09-09T08:28:17;11.98;;;1.30;;
9783;SDS011;4931;44.874;-1.092;2022-09-09T08:33:02;13.07;;;1.80;;
9783;SDS011;4931;44.874;-1.092;2022-09-09T08:37:48;14.27;;;1.65;;
9783;SDS011;4931;44.874;-1.092;2022-09-09T08:42:35;13.73;;;2.00;;
9783;SDS011;4931;44.874;-1.092;2022-09-09T08:47:28;10.13;;;1.67;;
9783;SDS011;4931;44.874;-1.092;2022-09-09T08:52:23;9.70;;;1.83;;
9783;SDS011;4931;44.874;-1.092;2022-09-09T08:57:14;12.00;;;1.40;;
9783;SDS011;4931;44.874;-1.092;2022-09-09T09:02:09;12.68;;;1.45;;
9783;SDS011;4931;44.874;-1.092;2022-09-09T09:07:06;11.38;;;1.10;;
9783;SDS011;4931;44.874;-1.092;2022-09-09T09:12:00;10.48;;;1.60;;
9783;SDS011;4931;44.874;-1.092;2022-09-09T09:16:48;7.55;;;1.52;;
9783;SDS011;4931;44.874;-1.092;2022-09-09T09:21:38;13.65;;;1.95;;
9783;SDS011;4931;44.874;-1.092;2022-09-09T09:26:30;13.27;;;1.50;;
9783;SDS011;4931;44.874;-1.092;2022-09-09T09:31:17;15.50;;;1.83;;
9783;SDS011;4931;44.874;-1.092;2022-09-09T09:36:07;15.07;;;1.90;;
9783;SDS011;4931;44.874;-1.092;2022-09-09T09:40:55;12.90;;;1.70;;
9783;SDS011;4931;44.874;-1.092;2022-09-09T09:45:44;13.40;;;2.22;;
9783;SDS011;4931;44.874;-1.092;2022-09-09T09:50:50;8.38;;;1.42;;
9783;SDS011;4931;44.874;-1.092;2022-09-09T09:55:44;12.98;;;1.40;;
9783;SDS011;4931;44.874;-1.092;2022-09-09T10:00:34;8.80;;;1.20;;
9783;SDS011;4931;44.874;-1.092;2022-09-09T10:05:23;6.22;;;1.60;;
9783;SDS011;4931;44.874;-1.092;2022-09-09T10:10:18;6.55;;;1.27;;
9783;SDS011;4931;44.874;-1.092;2022-09-09T10:15:15;6.20;;;0.82;;
9783;SDS011;4931;44.874;-1.092;2022-09-09T10:20:15;7.47;;;1.17;;
9783;SDS011;4931;44.874;-1.092;2022-09-09T10:30:20;9.93;;;1.20;;
9783;SDS011;4931;44.874;-1.092;2022-09-09T10:35:09;7.88;;;1.20;;
9783;SDS011;4931;44.874;-1.092;2022-09-09T10:40:00;6.95;;;1.00;;
9783;SDS011;4931;44.874;-1.092;2022-09-09T10:45:04;10.02;;;1.45;;
9783;SDS011;4931;44.874;-1.092;2022-09-09T10:50:11;8.57;;;1.40;;
9783;SDS011;4931;44.874;-1.092;2022-09-09T10:55:33;7.38;;;1.48;;
9783;SDS011;4931;44.874;-1.092;2022-09-09T11:00:27;9.90;;;1.73;;
9783;SDS011;4931;44.874;-1.092;2022-09-09T11:05:24;10.75;;;0.95;;
9783;SDS011;4931;44.874;-1.092;2022-09-09T11:10:17;7.72;;;1.15;;
9783;SDS011;4931;44.874;-1.092;2022-09-09T11:15:13;8.80;;;1.40;;
9783;SDS011;4931;44.874;-1.092;2022-09-09T11:20:10;8.07;;;1.38;;
9783;SDS011;4931;44.874;-1.092;2022-09-09T11:24:57;9.80;;;1.38;;
9783;SDS011;4931;44.874;-1.092;2022-09-09T11:35:26;10.48;;;1.55;;
9783;SDS011;4931;44.874;-1.092;2022-09-09T11:40:19;4.90;;;0.93;;
9783;SDS011;4931;44.874;-1.092;2022-09-09T11:45:11;9.75;;;1.30;;
9783;SDS011;4931;44.874;-1.092;2022-09-09T11:50:09;5.53;;;0.90;;
9783;SDS011;4931;44.874;-1.092;2022-09-09T11:55:24;5.50;;;0.80;;
9783;SDS011;4931;44.874;-1.092;2022-09-09T12:00:28;10.38;;;1.38;;
9783;SDS011;4931;44.874;-1.092;2022-09-09T12:05:18;8.50;;;1.42;;
9783;SDS011;4931;44.874;-1.092;2022-09-09T12:10:05;10.23;;;1.20;;
9783;SDS011;4931;44.874;-1.092;2022-09-09T12:20:12;6.82;;;1.17;;
9783;SDS011;4931;44.874;-1.092;2022-09-09T12:25:00;6.78;;;1.10;;
9783;SDS011;4931;44.874;-1.092;2022-09-09T12:30:04;8.57;;;1.30;;
9783;SDS011;4931;44.874;-1.092;2022-09-09T12:34:58;7.05;;;1.02;;
9783;SDS011;4931;44.874;-1.092;2022-09-09T12:39:49;5.72;;;0.80;;
9783;SDS011;4931;44.874;-1.092;2022-09-09T12:44:38;6.93;;;0.85;;
9783;SDS011;4931;44.874;-1.092;2022-09-09T12:49:26;4.85;;;1.00;;
9783;SDS011;4931;44.874;-1.092;2022-09-09T12:54:18;7.50;;;1.30;;
9783;SDS011;4931;44.874;-1.092;2022-09-09T12:59:05;7.78;;;0.98;;
9783;SDS011;4931;44.874;-1.092;2022-09-09T13:04:16;6.13;;;1.05;;
9783;SDS011;4931;44.874;-1.092;2022-09-09T13:09:04;5.75;;;0.90;;
9783;SDS011;4931;44.874;-1.092;2022-09-09T13:13:53;7.18;;;0.98;;
9783;SDS011;4931;44.874;-1.092;2022-09-09T13:18:40;7.50;;;1.63;;
9783;SDS011;4931;44.874;-1.092;2022-09-09T13:23:27;9.23;;;1.98;;
9783;SDS011;4931;44.874;-1.092;2022-09-09T13:28:20;6.40;;;1.13;;
9783;SDS011;4931;44.874;-1.092;2022-09-09T13:33:21;9.48;;;1.17;;
9783;SDS011;4931;44.874;-1.092;2022-09-09T13:38:07;6.83;;;1.17;;
9783;SDS011;4931;44.874;-1.092;2022-09-09T13:42:54;8.82;;;1.33;;
9783;SDS011;4931;44.874;-1.092;2022-09-09T13:47:41;7.95;;;1.10;;
9783;SDS011;4931;44.874;-1.092;2022-09-09T13:52:29;7.80;;;1.00;;
9783;SDS011;4931;44.874;-1.092;2022-09-09T13:57:15;6.00;;;0.88;;
9783;SDS011;4931;44.874;-1.092;2022-09-09T14:02:02;8.13;;;1.50;;
9783;SDS011;4931;44.874;-1.092;2022-09-09T14:06:47;10.10;;;1.35;;
9783;SDS011;4931;44.874;-1.092;2022-09-09T14:11:36;6.82;;;1.23;;
9783;SDS011;4931;44.874;-1.092;2022-09-09T14:16:22;8.05;;;1.15;;
9783;SDS011;4931;44.874;-1.092;2022-09-09T14:21:07;7.38;;;1.10;;
9783;SDS011;4931;44.874;-1.092;2022-09-09T14:25:53;6.40;;;1.20;;
9783;SDS011;4931;44.874;-1.092;2022-09-09T14:30:41;6.30;;;1.05;;
9783;SDS011;4931;44.874;-1.092;2022-09-09T14:35:28;5.07;;;0.80;;
9783;SDS011;4931;44.874;-1.092;2022-09-09T14:40:14;5.53;;;0.82;;
9783;SDS011;4931;44.874;-1.092;2022-09-09T14:45:00;7.30;;;1.02;;
9783;SDS011;4931;44.874;-1.092;2022-09-09T14:49:48;3.78;;;0.90;;
9783;SDS011;4931;44.874;-1.092;2022-09-09T14:54:35;6.85;;;1.27;;
9783;SDS011;4931;44.874;-1.092;2022-09-09T14:59:20;7.05;;;1.02;;
9783;SDS011;4931;44.874;-1.092;2022-09-09T15:04:05;6.25;;;1.00;;
9783;SDS011;4931;44.874;-1.092;2022-09-09T15:08:53;4.38;;;0.90;;
9783;SDS011;4931;44.874;-1.092;2022-09-09T15:13:40;4.82;;;1.13;;
9783;SDS011;4931;44.874;-1.092;2022-09-09T15:18:26;5.05;;;0.88;;
9783;SDS011;4931;44.874;-1.092;2022-09-09T15:23:11;9.05;;;1.33;;
9783;SDS011;4931;44.874;-1.092;2022-09-09T15:28:01;6.47;;;1.65;;
9783;SDS011;4931;44.874;-1.092;2022-09-09T15:32:46;6.85;;;1.10;;
9783;SDS011;4931;44.874;-1.092;2022-09-09T15:37:31;7.90;;;0.95;;
9783;SDS011;4931;44.874;-1.092;2022-09-09T15:42:16;5.25;;;1.00;;
9783;SDS011;4931;44.874;-1.092;2022-09-09T15:47:04;6.75;;;0.93;;
9783;SDS011;4931;44.874;-1.092;2022-09-09T15:51:50;8.63;;;1.13;;
9783;SDS011;4931;44.874;-1.092;2022-09-09T15:56:36;4.57;;;1.10;;
9783;SDS011;4931;44.874;-1.092;2022-09-09T16:01:22;6.18;;;1.02;;
9783;SDS011;4931;44.874;-1.092;2022-09-09T16:06:11;5.80;;;0.80;;
9783;SDS011;4931;44.874;-1.092;2022-09-09T16:11:03;9.23;;;1.20;;
9783;SDS011;4931;44.874;-1.092;2022-09-09T16:15:53;7.25;;;1.10;;
9783;SDS011;4931;44.874;-1.092;2022-09-09T16:20:40;8.80;;;1.25;;
9783;SDS011;4931;44.874;-1.092;2022-09-09T16:25:27;6.05;;;0.88;;
9783;SDS011;4931;44.874;-1.092;2022-09-09T16:30:13;6.63;;;0.90;;
9783;SDS011;4931;44.874;-1.092;2022-09-09T16:34:58;6.43;;;0.95;;
9783;SDS011;4931;44.874;-1.092;2022-09-09T16:39:44;4.80;;;0.90;;
9783;SDS011;4931;44.874;-1.092;2022-09-09T16:44:33;7.80;;;1.00;;
9783;SDS011;4931;44.874;-1.092;2022-09-09T16:49:19;7.90;;;1.00;;
9783;SDS011;4931;44.874;-1.092;2022-09-09T16:54:05;7.80;;;1.05;;
9783;SDS011;4931;44.874;-1.092;2022-09-09T16:58:53;10.00;;;1.08;;
9783;SDS011;4931;44.874;-1.092;2022-09-09T17:03:42;9.48;;;1.23;;
9783;SDS011;4931;44.874;-1.092;2022-09-09T17:08:28;7.00;;;1.17;;
9783;SDS011;4931;44.874;-1.092;2022-09-09T17:13:14;8.07;;;0.80;;
9783;SDS011;4931;44.874;-1.092;2022-09-09T17:18:01;5.50;;;0.85;;
9783;SDS011;4931;44.874;-1.092;2022-09-09T17:22:49;5.07;;;1.10;;
9783;SDS011;4931;44.874;-1.092;2022-09-09T17:27:34;7.22;;;1.10;;
9783;SDS011;4931;44.874;-1.092;2022-09-09T17:32:19;6.38;;;1.00;;
9783;SDS011;4931;44.874;-1.092;2022-09-09T17:37:05;6.43;;;1.20;;
9783;SDS011;4931;44.874;-1.092;2022-09-09T17:41:52;7.22;;;1.10;;
9783;SDS011;4931;44.874;-1.092;2022-09-09T17:46:38;9.32;;;2.53;;
9783;SDS011;4931;44.874;-1.092;2022-09-09T17:51:25;10.77;;;1.23;;
9783;SDS011;4931;44.874;-1.092;2022-09-09T17:56:12;8.32;;;2.42;;
9783;SDS011;4931;44.874;-1.092;2022-09-09T18:01:04;8.70;;;1.15;;
9783;SDS011;4931;44.874;-1.092;2022-09-09T18:05:51;6.82;;;1.35;;
9783;SDS011;4931;44.874;-1.092;2022-09-09T18:10:36;8.10;;;1.25;;
9783;SDS011;4931;44.874;-1.092;2022-09-09T18:15:21;6.30;;;1.10;;
9783;SDS011;4931;44.874;-1.092;2022-09-09T18:20:30;8.68;;;1.25;;
9783;SDS011;4931;44.874;-1.092;2022-09-09T18:25:15;14.07;;;1.40;;
9783;SDS011;4931;44.874;-1.092;2022-09-09T18:30:00;8.60;;;1.10;;
9783;SDS011;4931;44.874;-1.092;2022-09-09T18:34:45;10.63;;;1.10;;
9783;SDS011;4931;44.874;-1.092;2022-09-09T18:39:38;8.77;;;1.10;;
9783;SDS011;4931;44.874;-1.092;2022-09-09T18:44:24;7.55;;;1.50;;
9783;SDS011;4931;44.874;-1.092;2022-09-09T18:49:12;10.80;;;1.58;;
9783;SDS011;4931;44.874;-1.092;2022-09-09T18:53:58;8.70;;;1.10;;
9783;SDS011;4931;44.874;-1.092;2022-09-09T18:58:49;11.85;;;1.30;;
9783;SDS011;4931;44.874;-1.092;2022-09-09T19:03:36;9.02;;;1.42;;
9783;SDS011;4931;44.874;-1.092;2022-09-09T19:08:22;6.00;;;1.42;;
9783;SDS011;4931;44.874;-1.092;2022-09-09T19:13:07;9.43;;;1.60;;
9783;SDS011;4931;44.874;-1.092;2022-09-09T19:17:55;11.00;;;2.35;;
9783;SDS011;4931;44.874;-1.092;2022-09-09T19:22:46;10.70;;;1.77;;
9783;SDS011;4931;44.874;-1.092;2022-09-09T19:27:31;10.00;;;1.73;;
9783;SDS011;4931;44.874;-1.092;2022-09-09T19:32:18;7.88;;;1.67;;
9783;SDS011;4931;44.874;-1.092;2022-09-09T19:37:26;8.52;;;1.83;;
9783;SDS011;4931;44.874;-1.092;2022-09-09T19:42:12;8.07;;;1.55;;
9783;SDS011;4931;44.874;-1.092;2022-09-09T19:46:58;14.55;;;1.88;;
9783;SDS011;4931;44.874;-1.092;2022-09-09T19:51:43;10.18;;;2.38;;
9783;SDS011;4931;44.874;-1.092;2022-09-09T19:56:32;6.78;;;1.92;;
9783;SDS011;4931;44.874;-1.092;2022-09-09T20:01:18;10.93;;;1.75;;
9783;SDS011;4931;44.874;-1.092;2022-09-09T20:06:06;11.20;;;2.17;;
9783;SDS011;4931;44.874;-1.092;2022-09-09T20:10:52;12.02;;;2.63;;
9783;SDS011;4931;44.874;-1.092;2022-09-09T20:15:40;16.40;;;4.60;;
9783;SDS011;4931;44.874;-1.092;2022-09-09T20:20:26;16.08;;;6.18;;
9783;SDS011;4931;44.874;-1.092;2022-09-09T20:25:11;14.45;;;5.18;;
9783;SDS011;4931;44.874;-1.092;2022-09-09T20:29:56;15.25;;;4.93;;
9783;SDS011;4931;44.874;-1.092;2022-09-09T20:34:44;12.70;;;4.40;;
9783;SDS011;4931;44.874;-1.092;2022-09-09T20:39:29;12.40;;;4.30;;
9783;SDS011;4931;44.874;-1.092;2022-09-09T20:44:17;10.20;;;3.47;;
9783;SDS011;4931;44.874;-1.092;2022-09-09T20:49:03;14.93;;;5.80;;
9783;SDS011;4931;44.874;-1.092;2022-09-09T20:53:54;15.13;;;5.60;;
9783;SDS011;4931;44.874;-1.092;2022-09-09T20:58:41;14.90;;;4.68;;
9783;SDS011;4931;44.874;-1.092;2022-09-09T21:03:27;15.95;;;4.45;;
9783;SDS011;4931;44.874;-1.092;2022-09-09T21:08:14;15.43;;;4.80;;
9783;SDS011;4931;44.874;-1.092;2022-09-09T21:13:01;15.77;;;5.03;;
9783;SDS011;4931;44.874;-1.092;2022-09-09T21:17:46;16.42;;;4.70;;
9783;SDS011;4931;44.874;-1.092;2022-09-09T21:22:32;12.63;;;4.65;;
9783;SDS011;4931;44.874;-1.092;2022-09-09T21:27:17;13.00;;;4.15;;
9783;SDS011;4931;44.874;-1.092;2022-09-09T21:32:06;13.30;;;3.67;;
9783;SDS011;4931;44.874;-1.092;2022-09-09T21:36:51;13.05;;;3.55;;
9783;SDS011;4931;44.874;-1.092;2022-09-09T21:41:37;12.18;;;3.70;;
9783;SDS011;4931;44.874;-1.092;2022-09-09T21:46:23;11.13;;;3.40;;
9783;SDS011;4931;44.874;-1.092;2022-09-09T21:51:13;11.15;;;3.47;;
9783;SDS011;4931;44.874;-1.092;2022-09-09T21:55:59;14.65;;;4.43;;
9783;SDS011;4931;44.874;-1.092;2022-09-09T22:00:46;16.30;;;5.65;;
9783;SDS011;4931;44.874;-1.092;2022-09-09T22:05:32;15.65;;;4.90;;
9783;SDS011;4931;44.874;-1.092;2022-09-09T22:10:20;17.83;;;5.68;;
9783;SDS011;4931;44.874;-1.092;2022-09-09T22:15:08;19.42;;;5.95;;
9783;SDS011;4931;44.874;-1.092;2022-09-09T22:19:53;23.95;;;10.57;;
9783;SDS011;4931;44.874;-1.092;2022-09-09T22:24:40;21.13;;;8.85;;
9783;SDS011;4931;44.874;-1.092;2022-09-09T22:29:28;20.25;;;8.98;;
9783;SDS011;4931;44.874;-1.092;2022-09-09T22:34:14;21.15;;;7.80;;
9783;SDS011;4931;44.874;-1.092;2022-09-09T22:39:02;15.63;;;6.28;;
9783;SDS011;4931;44.874;-1.092;2022-09-09T22:43:48;14.73;;;5.15;;
9783;SDS011;4931;44.874;-1.092;2022-09-09T22:48:37;13.98;;;4.63;;
9783;SDS011;4931;44.874;-1.092;2022-09-09T22:53:23;10.85;;;3.30;;
9783;SDS011;4931;44.874;-1.092;2022-09-09T22:58:08;11.23;;;2.92;;
9783;SDS011;4931;44.874;-1.092;2022-09-09T23:02:53;7.32;;;2.85;;
9783;SDS011;4931;44.874;-1.092;2022-09-09T23:07:41;13.07;;;2.10;;
9783;SDS011;4931;44.874;-1.092;2022-09-09T23:12:27;10.23;;;2.08;;
9783;SDS011;4931;44.874;-1.092;2022-09-09T23:17:13;8.98;;;2.20;;
9783;SDS011;4931;44.874;-1.092;2022-09-09T23:21:59;9.70;;;2.28;;
9783;SDS011;4931;44.874;-1.092;2022-09-09T23:26:47;7.93;;;1.67;;
9783;SDS011;4931;44.874;-1.092;2022-09-09T23:31:33;8.48;;;1.88;;
9783;SDS011;4931;44.874;-1.092;2022-09-09T23:36:21;10.10;;;2.08;;
9783;SDS011;4931;44.874;-1.092;2022-09-09T23:41:08;9.38;;;2.10;;
9783;SDS011;4931;44.874;-1.092;2022-09-09T23:45:57;9.05;;;2.70;;
9783;SDS011;4931;44.874;-1.092;2022-09-09T23:50:43;10.02;;;3.45;;
9783;SDS011;4931;44.874;-1.092;2022-09-09T23:55:31;12.30;;;4.15;;
